首页
METAR-TAF:

METAR-TAF

机场 :

兰开斯特, 南卡罗来纳州, 美国

纬度: 34-43-22N, 经度: 080-51-17W, 海拔: 148米

当前天气观测

该预报发布于18分钟前的11:55 UTC
静风
温度 23°C
湿度 94%
气压 1011 hPa
能見度: 12.9公里
少量云层高于12000英尺

METAR: KLKR 131155Z AUTO 00000KT 8SM FEW120 23/22 A2985 RMK AO2

时间: 08:13 (12:13 UTC)


TAF: 丢失

超过4000个机场的气象观测和天气预报(METAR&TAF报告)。

可查询的气象台以黄色和红色小点在地图上表示。

将鼠标移到小点上方,可查看气象台名称。

然后点击查看天气观测和预报。

如需切换地图:点击带黑十字的绿色按钮放大地图;点击带横线的绿色按钮缩小地图;或者点击绿色箭头查看邻近地区的地图。


METAR-TAF: